Time;durP1;ratioP1;P1;durP2;ratioP2;P2;SDS_P1;SDS_P2;PMS_P1;PMS_P2;Temp;Humidity;BMP_temperature;BMP_pressure;BME280_temperature;BME280_humidity;BME280_pressure;Samples;Min_cycle;Max_cycle;Signal;HPM_P1;HPM_P2
2021/03/17 00:00:10;;;;;;;10.75;9.40;;;8.50;99.90;;;;;;5045885;28;20459;-77
2021/03/17 00:02:55;;;;;;;11.30;9.95;;;8.60;99.90;;;;;;5048173;28;21003;-77
2021/03/17 00:05:42;;;;;;;9.80;8.07;;;8.60;99.90;;;;;;5048136;28;20474;-76
2021/03/17 00:08:28;;;;;;;9.30;8.05;;;8.50;99.90;;;;;;5043139;28;20425;-76
2021/03/17 00:11:12;;;;;;;8.77;7.47;;;8.50;99.90;;;;;;5043370;28;20928;-76
2021/03/17 00:13:58;;;;;;;8.32;7.25;;;8.50;99.90;;;;;;5044357;28;20432;-76
2021/03/17 00:16:43;;;;;;;7.75;6.40;;;8.50;99.90;;;;;;5046662;28;20467;-76
2021/03/17 00:19:29;;;;;;;7.38;6.65;;;8.50;99.90;;;;;;5045656;28;20784;-75
2021/03/17 00:22:15;;;;;;;8.43;6.55;;;8.50;99.90;;;;;;5047597;28;20416;-76
2021/03/17 00:25:00;;;;;;;6.10;5.50;;;8.50;99.90;;;;;;5046559;28;20836;-75
2021/03/17 00:27:45;;;;;;;6.13;4.90;;;8.50;99.90;;;;;;5047471;28;20832;-75
2021/03/17 00:30:30;;;;;;;6.53;5.10;;;8.40;99.90;;;;;;5046552;28;20495;-74
2021/03/17 00:33:15;;;;;;;4.73;4.23;;;8.50;99.90;;;;;;5046961;28;21004;-75
2021/03/17 00:36:00;;;;;;;6.07;4.60;;;8.50;99.90;;;;;;5047413;28;20488;-75
2021/03/17 00:38:45;;;;;;;4.75;3.92;;;8.50;99.90;;;;;;5041812;28;20529;-76
2021/03/17 00:41:30;;;;;;;4.82;3.83;;;8.50;99.90;;;;;;5046560;28;20949;-75
2021/03/17 00:44:15;;;;;;;3.83;3.10;;;8.50;99.90;;;;;;5045872;28;20432;-78
2021/03/17 00:47:00;;;;;;;4.50;3.60;;;8.50;99.90;;;;;;5046911;28;20463;-76
2021/03/17 00:49:30;;;;;;;8.73;3.85;;;8.50;99.90;;;;;;5026323;28;20528;-77
2021/03/17 00:51:57;;;;;;;4.60;4.10;;;8.50;99.90;;;;;;5046685;28;20453;-74
2021/03/17 00:54:43;;;;;;;5.25;4.28;;;8.50;99.90;;;;;;5043259;28;20467;-76
2021/03/17 00:57:34;;;;;;;6.13;3.80;;;8.50;99.90;;;;;;5015680;28;20571;-76
2021/03/17 01:00:00;;;;;;;6.87;4.00;;;8.50;99.90;;;;;;5044233;28;20443;-76
2021/03/17 01:02:26;;;;;;;7.38;3.70;;;8.50;99.90;;;;;;5044618;28;20456;-74
2021/03/17 01:04:53;;;;;;;4.88;3.33;;;8.50;99.90;;;;;;5044470;28;20512;-75
2021/03/17 01:07:20;;;;;;;8.55;4.07;;;8.50;99.90;;;;;;5045051;28;20935;-74
2021/03/17 01:09:47;;;;;;;8.40;4.90;;;8.50;99.90;;;;;;5043859;28;20429;-76
2021/03/17 01:12:16;;;;;;;9.40;4.80;;;8.50;99.90;;;;;;5028562;28;20417;-76
2021/03/17 01:14:44;;;;;;;7.65;3.60;;;8.50;99.90;;;;;;5043958;28;20857;-76
2021/03/17 01:17:10;;;;;;;10.55;3.60;;;8.50;99.90;;;;;;5043425;28;20428;-77
2021/03/17 01:19:37;;;;;;;8.68;4.07;;;8.50;99.90;;;;;;5043734;28;20428;-74
2021/03/17 01:22:04;;;;;;;15.18;5.55;;;8.60;99.90;;;;;;5045094;28;20428;-78
2021/03/17 01:24:30;;;;;;;11.50;5.70;;;8.60;99.90;;;;;;5024412;28;20487;-76
2021/03/17 01:26:57;;;;;;;10.68;5.65;;;8.60;99.90;;;;;;5046129;28;20763;-75
2021/03/17 01:29:24;;;;;;;8.15;4.50;;;8.60;99.90;;;;;;5045610;28;20885;-75
2021/03/17 01:31:51;;;;;;;8.40;4.45;;;8.60;99.90;;;;;;5041869;28;20444;-74
2021/03/17 01:34:17;;;;;;;7.33;3.77;;;8.60;99.90;;;;;;5044925;28;20915;-75
2021/03/17 01:36:44;;;;;;;5.57;3.10;;;8.60;99.90;;;;;;5025337;28;20828;-75
2021/03/17 01:39:10;;;;;;;7.50;3.08;;;8.60;99.90;;;;;;5045603;28;20432;-75
2021/03/17 01:41:37;;;;;;;3.72;1.40;;;8.60;99.90;;;;;;5045058;28;20524;-75
2021/03/17 01:44:05;;;;;;;4.72;1.30;;;8.60;99.90;;;;;;5028253;28;20429;-76
2021/03/17 01:46:31;;;;;;;3.38;0.90;;;8.60;99.90;;;;;;5045512;28;20432;-76
2021/03/17 01:48:58;;;;;;;3.03;1.23;;;8.60;99.90;;;;;;5027216;28;20555;-75
2021/03/17 01:51:24;;;;;;;3.45;0.90;;;8.60;99.90;;;;;;5043060;28;20937;-75
2021/03/17 01:53:51;;;;;;;5.47;1.00;;;8.60;99.90;;;;;;5042788;28;20990;-76
2021/03/17 01:56:18;;;;;;;3.88;0.93;;;8.60;99.90;;;;;;5044748;28;20463;-76
2021/03/17 01:58:45;;;;;;;3.78;1.00;;;8.60;99.90;;;;;;5025313;28;20824;-74
2021/03/17 02:01:12;;;;;;;3.67;0.90;;;8.60;99.90;;;;;;5024175;28;20429;-75
2021/03/17 02:03:39;;;;;;;7.60;1.20;;;8.60;99.90;;;;;;5040345;28;20426;-76
2021/03/17 02:06:06;;;;;;;4.03;1.00;;;8.60;99.90;;;;;;5042119;28;20832;-77
2021/03/17 02:08:36;;;;;;;4.68;1.35;;;8.60;99.90;;;;;;5026918;28;20421;-77
2021/03/17 02:11:03;;;;;;;4.30;1.63;;;8.60;99.90;;;;;;5040499;28;20781;-75
2021/03/17 02:14:12;;;;;;;6.50;1.45;;;8.60;99.90;;;;;;5044711;28;20892;-76
2021/03/17 02:16:44;;;;;;;6.05;1.50;;;8.60;99.90;;;;;;5027086;28;20433;-76
2021/03/17 02:19:45;;;;;;;5.30;1.57;;;8.70;99.90;;;;;;5023125;28;20429;-78
2021/03/17 02:22:32;;;;;;;4.75;1.50;;;8.70;99.90;;;;;;5019891;28;20787;-74
2021/03/17 02:25:04;;;;;;;4.13;1.70;;;8.70;99.90;;;;;;5026215;28;20988;-74
2021/03/17 02:28:08;;;;;;;5.22;1.90;;;8.70;99.90;;;;;;5041924;28;20436;-76
2021/03/17 02:31:05;;;;;;;6.38;2.30;;;8.70;99.90;;;;;;5043761;28;20425;-76
2021/03/17 02:33:49;;;;;;;6.30;1.65;;;8.70;99.90;;;;;;5027056;28;20951;-77
2021/03/17 02:36:22;;;;;;;4.45;1.55;;;8.70;99.90;;;;;;5038946;28;20789;-76
2021/03/17 02:38:53;;;;;;;5.75;1.30;;;8.70;99.90;;;;;;5044268;28;20479;-76
2021/03/17 02:41:24;;;;;;;5.32;1.40;;;8.70;99.90;;;;;;5042380;28;20441;-77
2021/03/17 02:43:54;;;;;;;2.97;1.20;;;8.70;99.90;;;;;;5043773;28;20766;-76
2021/03/17 02:46:23;;;;;;;3.97;1.55;;;8.70;99.90;;;;;;5042229;28;20440;-76
2021/03/17 02:49:00;;;;;;;2.95;1.40;;;8.70;99.90;;;;;;5039898;28;20462;-77
2021/03/17 02:51:32;;;;;;;4.00;1.50;;;8.70;99.90;;;;;;5021262;28;20543;-76
2021/03/17 02:54:01;;;;;;;4.10;1.40;;;8.70;99.90;;;;;;5042500;28;20440;-77
2021/03/17 02:56:30;;;;;;;4.50;1.42;;;8.70;99.90;;;;;;5043364;28;20433;-76
2021/03/17 02:59:00;;;;;;;4.95;1.58;;;8.70;99.90;;;;;;5040639;28;22145;-77
2021/03/17 03:01:30;;;;;;;5.03;1.75;;;8.70;99.90;;;;;;5043068;28;20425;-77
2021/03/17 03:03:58;;;;;;;4.00;1.85;;;8.60;99.90;;;;;;5042958;28;20457;-76
2021/03/17 03:06:26;;;;;;;6.03;1.38;;;8.60;99.90;;;;;;5026441;28;20425;-76
2021/03/17 03:08:53;;;;;;;5.35;1.25;;;8.60;99.90;;;;;;5044841;28;20424;-77
2021/03/17 03:11:20;;;;;;;7.77;1.20;;;8.60;99.90;;;;;;5024702;28;20488;-77
2021/03/17 03:13:50;;;;;;;3.47;1.20;;;8.60;99.90;;;;;;5026135;28;20491;-76
2021/03/17 03:16:17;;;;;;;5.13;1.20;;;8.70;99.90;;;;;;5025602;28;20940;-78
2021/03/17 03:18:47;;;;;;;4.55;1.10;;;8.70;99.90;;;;;;5046922;28;20806;-75
2021/03/17 03:21:16;;;;;;;3.85;1.00;;;8.60;99.90;;;;;;5028384;28;20428;-77
2021/03/17 03:23:42;;;;;;;5.38;2.10;;;8.70;99.90;;;;;;5031628;28;20433;-76
2021/03/17 03:26:09;;;;;;;7.17;2.23;;;8.70;99.90;;;;;;5046173;28;20443;-76
2021/03/17 03:28:37;;;;;;;6.00;3.00;;;8.70;99.90;;;;;;5031899;28;20512;-75
2021/03/17 03:31:04;;;;;;;6.90;3.00;;;8.70;99.90;;;;;;5045044;28;20459;-76
2021/03/17 03:33:31;;;;;;;5.03;2.50;;;8.70;99.90;;;;;;5045646;28;20440;-78
2021/03/17 03:35:57;;;;;;;6.65;2.15;;;8.80;99.90;;;;;;5045286;28;20455;-76
2021/03/17 03:38:25;;;;;;;5.22;2.00;;;8.70;99.90;;;;;;5045898;28;20429;-76
2021/03/17 03:40:51;;;;;;;7.00;2.20;;;8.80;99.90;;;;;;5046646;28;20444;-76
2021/03/17 03:43:18;;;;;;;5.63;1.77;;;8.80;99.90;;;;;;5047464;28;20444;-75
2021/03/17 03:45:44;;;;;;;7.18;1.80;;;8.70;99.90;;;;;;5044788;28;20967;-75
2021/03/17 03:48:12;;;;;;;5.93;1.40;;;8.80;99.90;;;;;;5041432;28;20503;-77
2021/03/17 03:50:42;;;;;;;4.10;1.10;;;8.80;99.90;;;;;;5044963;28;20433;-75
2021/03/17 03:53:22;;;;;;;3.33;1.00;;;8.70;99.90;;;;;;5045132;28;20433;-75
2021/03/17 03:55:54;;;;;;;2.83;1.25;;;8.70;99.90;;;;;;5026424;28;20436;-76
2021/03/17 03:58:28;;;;;;;4.25;1.05;;;8.70;99.90;;;;;;5043786;28;20425;-77
2021/03/17 04:00:59;;;;;;;4.68;1.30;;;8.70;99.90;;;;;;5027488;28;20425;-76
2021/03/17 04:03:29;;;;;;;5.38;1.30;;;8.70;99.90;;;;;;5026024;28;20436;-76
2021/03/17 04:05:56;;;;;;;4.63;1.00;;;8.70;99.90;;;;;;5046793;28;20424;-77
2021/03/17 04:08:26;;;;;;;6.05;0.95;;;8.70;99.90;;;;;;5046268;28;20487;-77
2021/03/17 04:10:56;;;;;;;4.45;1.00;;;8.70;99.90;;;;;;5029771;28;20948;-77
2021/03/17 04:13:25;;;;;;;4.63;0.90;;;8.70;99.90;;;;;;5046157;28;20433;-76
2021/03/17 04:15:55;;;;;;;2.07;0.80;;;8.70;99.90;;;;;;5046452;28;20440;-75
2021/03/17 04:18:25;;;;;;;3.25;0.80;;;8.70;99.90;;;;;;5046060;28;20482;-77
2021/03/17 04:20:55;;;;;;;5.18;1.00;;;8.70;99.90;;;;;;5028894;28;20444;-76
2021/03/17 04:23:24;;;;;;;3.50;0.70;;;8.70;99.90;;;;;;5042455;28;20433;-76
2021/03/17 04:25:54;;;;;;;3.67;0.80;;;8.70;99.90;;;;;;5044449;28;20933;-75
2021/03/17 04:28:23;;;;;;;4.20;0.90;;;8.70;99.90;;;;;;5028450;28;20428;-76
2021/03/17 04:30:52;;;;;;;4.77;0.90;;;8.70;99.90;;;;;;5045891;28;20433;-75
2021/03/17 04:33:20;;;;;;;3.35;0.80;;;8.70;99.90;;;;;;5042070;28;20881;-76
2021/03/17 04:35:48;;;;;;;5.30;0.90;;;8.70;99.90;;;;;;5045329;28;20429;-75
2021/03/17 04:38:15;;;;;;;5.07;0.80;;;8.70;99.90;;;;;;5045834;28;20475;-74
2021/03/17 04:40:43;;;;;;;4.90;0.80;;;8.70;99.90;;;;;;5027921;28;20471;-76
2021/03/17 04:43:11;;;;;;;3.83;1.00;;;8.70;99.90;;;;;;5044214;28;20428;-75
2021/03/17 04:45:40;;;;;;;4.35;1.10;;;8.70;99.90;;;;;;5045565;28;21803;-75
2021/03/17 04:48:07;;;;;;;3.83;0.80;;;8.70;99.90;;;;;;5043702;28;20913;-76
2021/03/17 04:50:38;;;;;;;3.60;1.00;;;8.70;99.90;;;;;;5045536;28;20781;-75
2021/03/17 04:53:04;;;;;;;6.20;0.77;;;8.70;99.90;;;;;;5028213;28;20437;-77
2021/03/17 04:55:31;;;;;;;3.95;0.90;;;8.70;99.90;;;;;;5043686;28;20428;-76
2021/03/17 04:57:58;;;;;;;3.30;0.80;;;8.70;99.90;;;;;;5044313;28;20897;-76
2021/03/17 05:00:27;;;;;;;2.13;0.68;;;8.70;99.90;;;;;;5028035;28;20436;-75
2021/03/17 05:02:57;;;;;;;2.15;0.60;;;8.70;99.90;;;;;;5041250;28;20439;-76
2021/03/17 05:05:24;;;;;;;1.75;0.50;;;8.70;99.90;;;;;;5042507;28;20428;-76
2021/03/17 05:07:53;;;;;;;2.40;0.60;;;8.70;99.90;;;;;;5043256;28;20432;-76
2021/03/17 05:10:20;;;;;;;2.05;0.45;;;8.70;99.90;;;;;;5028394;28;20417;-76
2021/03/17 05:12:47;;;;;;;2.17;0.60;;;8.70;99.80;;;;;;5039062;28;20437;-76
2021/03/17 05:15:14;;;;;;;3.60;0.60;;;8.70;99.80;;;;;;5025079;28;20425;-76
2021/03/17 05:17:43;;;;;;;2.00;0.70;;;8.70;99.40;;;;;;5043396;28;20472;-76
2021/03/17 05:20:14;;;;;;;3.88;0.98;;;8.60;99.70;;;;;;5044728;28;20436;-76
2021/03/17 05:22:43;;;;;;;3.22;0.77;;;8.60;99.80;;;;;;5042531;28;20433;-77
2021/03/17 05:25:15;;;;;;;4.47;0.90;;;8.60;99.90;;;;;;5044031;28;20429;-78
2021/03/17 05:27:43;;;;;;;2.40;0.70;;;8.60;99.90;;;;;;5023420;28;20432;-76
2021/03/17 05:30:11;;;;;;;5.33;1.40;;;8.60;99.90;;;;;;5042898;28;20437;-77
2021/03/17 05:32:41;;;;;;;4.88;1.33;;;8.60;99.90;;;;;;5044142;28;20437;-78
2021/03/17 05:35:11;;;;;;;10.00;5.53;;;8.60;99.90;;;;;;5044375;28;20457;-77
2021/03/17 05:37:38;;;;;;;2.90;0.70;;;8.50;99.60;;;;;;5043908;28;20444;-76
2021/03/17 05:40:08;;;;;;;2.28;0.88;;;8.50;99.70;;;;;;5025608;28;20439;-78
2021/03/17 05:42:35;;;;;;;3.70;0.60;;;8.50;99.50;;;;;;5042225;28;20912;-76
2021/03/17 05:45:02;;;;;;;2.50;0.70;;;8.50;99.70;;;;;;5041603;28;20429;-77
2021/03/17 05:47:30;;;;;;;2.83;0.63;;;8.50;99.70;;;;;;5039714;28;20435;-76
2021/03/17 05:49:57;;;;;;;2.85;0.80;;;8.50;99.70;;;;;;5023341;28;20425;-77
2021/03/17 05:52:24;;;;;;;2.55;0.75;;;8.50;99.90;;;;;;5041701;28;20434;-77
2021/03/17 05:54:52;;;;;;;2.47;0.70;;;8.60;99.90;;;;;;5043672;28;20429;-76
2021/03/17 05:57:19;;;;;;;4.20;1.02;;;8.60;99.90;;;;;;5026489;28;20790;-77
2021/03/17 05:59:46;;;;;;;4.67;1.40;;;8.60;99.90;;;;;;5044023;28;20461;-77
2021/03/17 06:02:14;;;;;;;3.03;1.35;;;8.60;99.90;;;;;;5044249;28;20424;-77
2021/03/17 06:04:43;;;;;;;5.47;2.77;;;8.60;99.90;;;;;;5043580;28;20439;-75
2021/03/17 06:07:14;;;;;;;5.93;2.83;;;8.50;99.90;;;;;;5038309;28;20434;-75
2021/03/17 06:09:45;;;;;;;2.63;1.43;;;8.60;99.90;;;;;;5023300;28;20429;-78
2021/03/17 06:12:14;;;;;;;3.60;1.60;;;8.60;99.90;;;;;;5025406;28;20429;-78
2021/03/17 06:14:44;;;;;;;3.17;1.50;;;8.50;99.90;;;;;;5042475;28;20503;-76
2021/03/17 06:17:13;;;;;;;3.85;1.33;;;8.50;99.90;;;;;;5023885;28;21242;-76
2021/03/17 06:19:43;;;;;;;3.10;1.50;;;8.50;99.90;;;;;;5039698;28;20532;-77
2021/03/17 06:22:09;;;;;;;3.25;1.45;;;8.40;99.90;;;;;;5042666;28;20441;-76
2021/03/17 06:24:36;;;;;;;3.78;1.67;;;8.40;99.90;;;;;;5026691;28;20433;-76
2021/03/17 06:27:05;;;;;;;5.82;1.40;;;8.40;99.90;;;;;;5041759;28;20421;-76
2021/03/17 06:29:31;;;;;;;4.10;1.50;;;8.40;99.90;;;;;;5041674;28;20495;-75
2021/03/17 06:31:58;;;;;;;2.00;1.10;;;8.40;99.90;;;;;;5025509;28;20428;-76
2021/03/17 06:34:24;;;;;;;2.70;1.20;;;8.30;99.90;;;;;;5040578;28;20529;-76
2021/03/17 06:36:52;;;;;;;2.55;1.00;;;8.40;99.90;;;;;;5045341;28;20827;-75
2021/03/17 06:39:20;;;;;;;4.72;1.10;;;8.40;99.90;;;;;;5040245;28;20421;-77
2021/03/17 06:41:50;;;;;;;3.92;1.08;;;8.40;99.90;;;;;;5042369;28;20421;-77
2021/03/17 06:44:23;;;;;;;3.37;1.73;;;8.40;99.90;;;;;;5042124;28;20432;-76
2021/03/17 06:47:17;;;;;;;4.93;1.30;;;8.40;99.90;;;;;;5024529;28;20637;-76
2021/03/17 06:49:45;;;;;;;4.20;1.40;;;8.40;99.50;;;;;;5025738;28;20440;-76
2021/03/17 06:52:33;;;;;;;3.22;1.30;;;8.40;99.50;;;;;;5028757;28;20433;-76
2021/03/17 06:55:08;;;;;;;4.65;1.70;;;8.50;99.30;;;;;;5042091;28;20816;-76
2021/03/17 06:57:40;;;;;;;5.10;1.77;;;8.40;99.20;;;;;;5046152;28;20647;-76
2021/03/17 07:00:27;;;;;;;6.32;2.72;;;8.40;99.20;;;;;;5027411;28;20784;-76
2021/03/17 07:02:56;;;;;;;6.15;2.08;;;8.50;99.20;;;;;;5045664;28;20468;-76
2021/03/17 07:05:31;;;;;;;6.07;2.10;;;8.50;99.00;;;;;;5043157;28;20937;-76
2021/03/17 07:07:58;;;;;;;6.20;2.50;;;8.50;99.20;;;;;;5031247;28;20540;-76
2021/03/17 07:10:29;;;;;;;6.18;2.63;;;8.50;99.30;;;;;;5045810;28;20508;-78
2021/03/17 07:12:57;;;;;;;6.65;2.10;;;8.50;99.30;;;;;;5045419;28;20490;-78
2021/03/17 07:15:24;;;;;;;6.55;2.40;;;8.50;99.20;;;;;;5047027;28;21182;-73
2021/03/17 07:17:53;;;;;;;7.55;2.60;;;8.50;99.70;;;;;;5046243;28;20471;-76
2021/03/17 07:20:39;;;;;;;5.18;2.05;;;8.40;99.90;;;;;;5046046;28;20439;-77
2021/03/17 07:23:29;;;;;;;4.70;1.90;;;8.40;99.90;;;;;;5048295;28;20473;-74
2021/03/17 07:26:20;;;;;;;9.43;2.60;;;8.40;99.90;;;;;;5044497;28;20478;-79
2021/03/17 07:29:12;;;;;;;4.75;2.10;;;8.40;99.90;;;;;;5027521;28;20425;-75
2021/03/17 07:31:42;;;;;;;7.50;1.80;;;8.40;99.90;;;;;;5041742;28;20429;-77
2021/03/17 07:34:23;;;;;;;3.38;1.40;;;8.40;99.90;;;;;;5046192;28;20432;-75
2021/03/17 07:36:53;;;;;;;5.30;1.60;;;8.40;99.90;;;;;;5046745;28;20457;-77
2021/03/17 07:39:23;;;;;;;5.88;2.20;;;8.40;99.90;;;;;;5048162;28;20429;-77
2021/03/17 07:41:51;;;;;;;9.50;1.30;;;8.40;99.90;;;;;;5048187;28;20425;-77
2021/03/17 07:44:18;;;;;;;5.15;1.23;;;8.50;99.70;;;;;;5048283;28;20428;-76
2021/03/17 07:46:48;;;;;;;6.30;1.35;;;8.50;99.50;;;;;;5030543;28;20417;-77
2021/03/17 07:49:15;;;;;;;4.97;1.73;;;8.50;99.50;;;;;;5029773;28;20421;-76
2021/03/17 07:51:50;;;;;;;4.70;1.35;;;8.60;99.70;;;;;;5042453;28;20413;-75
2021/03/17 07:54:22;;;;;;;4.13;1.40;;;8.60;99.60;;;;;;5046353;28;20516;-75
2021/03/17 07:56:49;;;;;;;11.43;1.50;;;8.60;99.40;;;;;;5028572;28;20448;-76
2021/03/17 07:59:20;;;;;;;6.37;1.60;;;8.60;99.10;;;;;;5046303;28;20788;-75
2021/03/17 08:01:47;;;;;;;10.10;1.90;;;8.70;99.20;;;;;;5026812;28;20940;-77
2021/03/17 08:04:15;;;;;;;8.82;1.73;;;8.70;99.00;;;;;;5043968;28;20437;-77
2021/03/17 08:06:42;;;;;;;8.10;1.48;;;8.70;98.70;;;;;;5031095;28;20421;-76
2021/03/17 08:09:08;;;;;;;10.00;1.60;;;8.70;99.00;;;;;;5045513;28;20790;-75
2021/03/17 08:11:36;;;;;;;4.77;1.33;;;8.70;99.10;;;;;;5046107;28;20429;-75
2021/03/17 08:14:04;;;;;;;6.57;1.38;;;8.80;98.90;;;;;;5027553;28;20433;-75
2021/03/17 08:16:34;;;;;;;6.88;1.20;;;8.80;99.10;;;;;;5045310;28;20448;-78
2021/03/17 08:19:01;;;;;;;5.05;1.27;;;8.90;98.40;;;;;;5025485;28;20426;-76
2021/03/17 08:21:45;;;;;;;12.82;4.05;;;8.90;98.10;;;;;;5042936;28;20916;-76
2021/03/17 08:24:35;;;;;;;7.60;1.58;;;8.90;97.90;;;;;;5040644;28;20423;-77
2021/03/17 08:27:13;;;;;;;10.43;1.33;;;8.90;97.90;;;;;;5037478;28;20903;-75
2021/03/17 08:29:44;;;;;;;7.95;1.60;;;8.90;97.60;;;;;;5043840;28;20429;-74
2021/03/17 08:32:14;;;;;;;7.95;1.20;;;8.90;97.80;;;;;;5025099;28;20452;-78
2021/03/17 08:34:51;;;;;;;4.90;1.38;;;8.90;98.20;;;;;;5045480;28;20421;-77
2021/03/17 08:37:17;;;;;;;5.90;1.10;;;8.90;98.00;;;;;;5044773;28;20835;-74
2021/03/17 08:39:50;;;;;;;5.93;1.10;;;9.00;97.50;;;;;;5047470;28;20425;-78
2021/03/17 08:42:31;;;;;;;8.57;1.33;;;9.00;97.10;;;;;;5027412;28;20417;-77
2021/03/17 08:44:59;;;;;;;6.40;1.30;;;9.00;97.00;;;;;;5043144;28;20429;-75
2021/03/17 08:47:31;;;;;;;7.47;1.35;;;9.00;96.80;;;;;;5045484;28;20478;-75
2021/03/17 08:50:17;;;;;;;5.55;1.23;;;9.00;96.90;;;;;;5026961;28;20427;-76
2021/03/17 08:52:48;;;;;;;5.30;1.20;;;9.00;97.00;;;;;;5028482;28;20479;-75
2021/03/17 08:55:16;;;;;;;6.07;1.20;;;9.00;97.50;;;;;;5028438;28;20435;-74
2021/03/17 08:57:58;;;;;;;6.43;1.20;;;9.00;97.50;;;;;;5045085;28;20427;-74
2021/03/17 09:00:45;;;;;;;6.05;1.40;;;9.00;97.50;;;;;;5047253;28;20440;-75
2021/03/17 09:03:45;;;;;;;7.60;2.07;;;9.00;98.20;;;;;;5045931;28;20854;-75
2021/03/17 09:06:18;;;;;;;9.02;3.00;;;9.00;98.80;;;;;;5047712;28;20478;-75
2021/03/17 09:08:59;;;;;;;4.53;1.10;;;9.00;99.30;;;;;;5046777;28;20475;-76
2021/03/17 09:11:59;;;;;;;6.30;1.30;;;9.00;99.40;;;;;;5027308;28;20421;-76
2021/03/17 09:14:33;;;;;;;5.32;1.10;;;9.00;99.90;;;;;;5044353;28;20449;-75
2021/03/17 09:17:25;;;;;;;6.25;1.40;;;9.00;99.90;;;;;;5046375;28;20805;-74
2021/03/17 09:20:13;;;;;;;7.57;1.52;;;9.00;99.90;;;;;;5047818;28;20516;-77
2021/03/17 09:22:44;;;;;;;5.10;1.23;;;9.00;99.90;;;;;;5028709;28;20490;-75
2021/03/17 09:25:17;;;;;;;4.68;1.15;;;9.10;99.90;;;;;;5031233;28;20421;-77
2021/03/17 09:27:49;;;;;;;4.97;1.30;;;9.10;99.90;;;;;;5045280;28;20423;-75
2021/03/17 09:30:18;;;;;;;5.15;1.35;;;9.10;99.90;;;;;;5028921;28;21044;-75
2021/03/17 09:32:45;;;;;;;5.18;1.45;;;9.10;99.90;;;;;;5043170;28;20433;-75
2021/03/17 09:35:13;;;;;;;4.07;1.10;;;9.10;99.90;;;;;;5029575;28;20443;-75
2021/03/17 09:37:41;;;;;;;3.83;1.05;;;9.10;99.90;;;;;;5025781;28;20431;-76
2021/03/17 09:40:09;;;;;;;5.35;1.00;;;9.10;99.90;;;;;;5047307;28;20850;-75
2021/03/17 09:42:37;;;;;;;6.05;1.10;;;9.20;99.90;;;;;;5026154;28;21340;-76
2021/03/17 09:45:06;;;;;;;6.07;1.17;;;9.30;99.90;;;;;;5028544;28;20518;-76
2021/03/17 09:47:33;;;;;;;7.70;1.20;;;9.30;99.90;;;;;;5025285;28;20486;-74
2021/03/17 09:49:59;;;;;;;6.70;1.10;;;9.30;99.90;;;;;;5025294;28;20914;-75
2021/03/17 09:52:28;;;;;;;6.05;1.10;;;9.40;99.60;;;;;;5043715;28;20436;-75
2021/03/17 09:54:55;;;;;;;8.15;1.33;;;9.40;98.60;;;;;;5043973;28;20424;-77
2021/03/17 09:57:23;;;;;;;7.18;1.30;;;9.40;98.50;;;;;;5044421;28;20432;-76
2021/03/17 09:59:49;;;;;;;6.68;1.20;;;9.40;98.30;;;;;;5045991;28;20439;-75
2021/03/17 10:02:21;;;;;;;6.88;1.23;;;9.40;98.20;;;;;;5046050;28;20460;-76
2021/03/17 10:04:49;;;;;;;7.23;1.10;;;9.40;98.20;;;;;;5046223;28;20437;-76
2021/03/17 10:07:18;;;;;;;7.55;1.75;;;9.50;97.90;;;;;;5025549;28;20437;-76
2021/03/17 10:09:46;;;;;;;7.88;1.20;;;9.50;97.50;;;;;;5027101;28;20909;-76
2021/03/17 10:12:16;;;;;;;6.18;1.20;;;9.50;97.60;;;;;;5044810;28;20448;-76
2021/03/17 10:14:46;;;;;;;7.95;1.55;;;9.50;97.20;;;;;;5026576;28;20433;-76
2021/03/17 10:17:15;;;;;;;6.50;1.33;;;9.60;97.00;;;;;;5044364;28;20437;-75
2021/03/17 10:19:42;;;;;;;6.60;1.40;;;9.50;97.20;;;;;;5029759;28;20422;-76
2021/03/17 10:22:09;;;;;;;9.90;1.40;;;9.50;96.80;;;;;;5043208;28;20428;-74
2021/03/17 10:24:41;;;;;;;10.48;1.73;;;9.60;96.70;;;;;;5044163;28;20425;-75
2021/03/17 10:27:10;;;;;;;13.13;1.40;;;9.60;97.00;;;;;;5044206;28;20432;-76
2021/03/17 10:29:38;;;;;;;10.27;1.48;;;9.60;96.60;;;;;;5027469;28;20832;-75
2021/03/17 10:32:06;;;;;;;9.38;1.45;;;9.70;96.80;;;;;;5045258;28;20448;-73
2021/03/17 10:34:32;;;;;;;9.05;1.52;;;9.70;96.40;;;;;;5044132;28;20421;-76
2021/03/17 10:36:59;;;;;;;9.05;1.60;;;9.70;96.30;;;;;;5045545;28;20433;-76
2021/03/17 10:39:30;;;;;;;9.48;1.80;;;9.80;96.10;;;;;;5027524;28;20492;-76
2021/03/17 10:41:58;;;;;;;6.95;1.20;;;9.80;95.90;;;;;;5045177;28;20969;-78
2021/03/17 10:44:26;;;;;;;12.00;1.80;;;9.80;95.50;;;;;;5028015;28;20437;-77
2021/03/17 10:47:03;;;;;;;13.35;1.63;;;9.80;95.30;;;;;;5011930;28;20421;-76
2021/03/17 10:49:32;;;;;;;8.38;1.45;;;9.80;95.80;;;;;;5044078;28;20483;-75
2021/03/17 10:51:59;;;;;;;14.13;2.08;;;9.90;95.50;;;;;;5047075;28;20429;-76
2021/03/17 10:54:30;;;;;;;7.32;1.60;;;9.90;95.60;;;;;;5044506;28;20924;-75
2021/03/17 10:56:57;;;;;;;7.15;1.50;;;9.90;95.10;;;;;;5045115;28;20447;-77
2021/03/17 10:59:28;;;;;;;10.98;1.35;;;9.90;95.50;;;;;;5040080;28;21119;-76
2021/03/17 11:02:25;;;;;;;8.40;1.40;;;10.00;95.50;;;;;;5041415;28;20486;-76
2021/03/17 11:05:32;;;;;;;7.75;1.58;;;10.00;95.40;;;;;;5043925;28;20548;-74
2021/03/17 11:08:05;;;;;;;8.63;1.45;;;10.00;94.90;;;;;;5038544;28;20936;-74
2021/03/17 11:10:47;;;;;;;8.10;1.10;;;10.00;94.70;;;;;;5025748;28;20508;-76
2021/03/17 11:13:39;;;;;;;10.68;1.50;;;10.00;94.50;;;;;;5045150;28;20436;-74
2021/03/17 11:16:11;;;;;;;12.90;1.80;;;9.90;94.30;;;;;;5024373;28;21017;-76
2021/03/17 11:18:45;;;;;;;13.73;1.67;;;9.90;94.40;;;;;;5044879;28;20916;-76
2021/03/17 11:21:22;;;;;;;9.60;1.97;;;9.90;94.50;;;;;;5039946;28;20428;-75
2021/03/17 11:23:52;;;;;;;11.05;1.65;;;9.90;94.40;;;;;;5045219;28;20532;-76
2021/03/17 11:26:24;;;;;;;10.38;1.45;;;9.90;94.90;;;;;;5040738;28;20441;-75
2021/03/17 11:28:51;;;;;;;13.10;2.05;;;10.00;94.70;;;;;;5043516;28;20444;-76
2021/03/17 11:31:27;;;;;;;13.05;1.73;;;10.00;94.40;;;;;;5043310;28;20433;-75
2021/03/17 11:33:55;;;;;;;11.57;1.77;;;10.00;94.80;;;;;;5045847;28;20435;-76
2021/03/17 11:36:22;;;;;;;11.93;1.70;;;10.10;94.70;;;;;;5039205;28;20439;-78
2021/03/17 11:38:48;;;;;;;13.07;2.40;;;10.10;94.50;;;;;;5028592;28;20904;-75
2021/03/17 11:41:15;;;;;;;13.05;2.03;;;10.10;94.70;;;;;;5047375;28;20424;-74
2021/03/17 11:43:41;;;;;;;10.60;1.70;;;10.10;94.30;;;;;;5049377;28;20424;-75
2021/03/17 11:46:08;;;;;;;13.82;1.90;;;10.10;94.00;;;;;;5046118;28;20429;-75
2021/03/17 11:48:34;;;;;;;12.55;1.80;;;10.10;94.10;;;;;;5050097;28;20901;-75
2021/03/17 11:51:04;;;;;;;12.43;2.10;;;10.10;94.00;;;;;;5047187;28;20503;-74
2021/03/17 11:53:31;;;;;;;13.98;1.90;;;10.10;94.00;;;;;;5048893;28;20432;-76
2021/03/17 11:56:00;;;;;;;9.10;1.55;;;10.20;93.90;;;;;;5047458;28;20459;-76
2021/03/17 11:58:27;;;;;;;10.88;1.60;;;10.30;93.90;;;;;;5045473;28;20913;-74
2021/03/17 12:00:54;;;;;;;11.90;1.80;;;10.40;93.40;;;;;;5048875;28;20479;-75
2021/03/17 12:03:20;;;;;;;9.60;2.10;;;10.50;93.10;;;;;;5046396;28;20516;-74
2021/03/17 12:05:46;;;;;;;11.33;1.90;;;10.50;92.90;;;;;;5046526;28;20931;-76
2021/03/17 12:08:15;;;;;;;13.05;2.88;;;10.60;93.00;;;;;;5031085;28;20940;-76
2021/03/17 12:10:41;;;;;;;11.55;2.00;;;10.60;92.70;;;;;;5042309;28;20433;-76
2021/03/17 12:13:08;;;;;;;13.20;2.10;;;10.60;92.30;;;;;;5048398;28;20425;-76
2021/03/17 12:15:35;;;;;;;15.02;2.22;;;10.60;92.70;;;;;;5028127;28;20496;-76
2021/03/17 12:18:02;;;;;;;13.15;1.83;;;10.60;92.60;;;;;;5047625;28;20460;-75
2021/03/17 12:20:30;;;;;;;9.65;1.90;;;10.60;92.90;;;;;;5027807;28;20924;-75
2021/03/17 12:22:57;;;;;;;12.52;2.03;;;10.70;92.90;;;;;;5029703;28;20417;-72
2021/03/17 12:25:25;;;;;;;10.07;2.00;;;10.70;92.80;;;;;;5029345;28;20432;-73
2021/03/17 12:27:51;;;;;;;11.45;2.30;;;10.80;92.70;;;;;;5047175;28;20528;-74
2021/03/17 12:30:20;;;;;;;10.20;2.47;;;10.90;92.60;;;;;;5043879;28;20421;-74
2021/03/17 12:32:47;;;;;;;9.68;2.00;;;11.00;92.50;;;;;;5041349;28;20429;-74
2021/03/17 12:35:16;;;;;;;12.55;2.00;;;11.10;92.30;;;;;;5045490;28;20436;-74
2021/03/17 12:37:44;;;;;;;14.02;1.85;;;11.20;92.00;;;;;;5045162;28;20467;-75
2021/03/17 12:40:13;;;;;;;13.95;2.33;;;11.40;91.90;;;;;;5045734;28;20447;-75
2021/03/17 12:42:41;;;;;;;10.15;1.98;;;11.40;91.70;;;;;;5025401;28;20426;-75
2021/03/17 12:45:10;;;;;;;10.23;2.10;;;11.50;91.30;;;;;;5045485;28;20433;-75
2021/03/17 12:47:37;;;;;;;18.05;2.80;;;11.60;91.10;;;;;;5045576;28;20429;-75
2021/03/17 12:50:05;;;;;;;14.00;2.60;;;11.60;90.80;;;;;;5046371;28;20483;-73
2021/03/17 12:52:31;;;;;;;13.70;2.80;;;11.50;90.80;;;;;;5046181;28;20511;-73
2021/03/17 12:54:57;;;;;;;16.45;2.50;;;11.50;90.80;;;;;;5044860;28;20433;-73
2021/03/17 12:57:24;;;;;;;15.75;2.65;;;11.40;90.60;;;;;;5024993;28;20421;-73
2021/03/17 12:59:54;;;;;;;13.68;2.00;;;11.40;91.00;;;;;;5045523;28;20425;-76
2021/03/17 13:02:21;;;;;;;12.63;1.70;;;11.50;90.70;;;;;;5045702;28;20432;-75
2021/03/17 13:04:47;;;;;;;15.02;2.50;;;11.50;90.70;;;;;;5027950;28;20423;-76
2021/03/17 13:07:13;;;;;;;11.88;2.72;;;11.60;90.90;;;;;;5044789;28;20417;-75
2021/03/17 13:09:39;;;;;;;11.65;2.15;;;11.70;90.90;;;;;;5044296;28;20425;-74
2021/03/17 13:12:06;;;;;;;11.35;2.03;;;11.80;90.60;;;;;;5028414;28;20425;-74
2021/03/17 13:14:33;;;;;;;14.52;2.08;;;11.90;90.50;;;;;;5044908;28;20440;-75